createdAt,value
2022-11-29T00:00:49.996Z,27.95
2022-11-29T00:03:16.699Z,31.60
2022-11-29T00:05:43.425Z,27.65
2022-11-29T00:08:10.078Z,27.88
2022-11-29T00:10:38.003Z,40.47
2022-11-29T00:13:05.244Z,37.78
2022-11-29T00:15:36.107Z,35.95
2022-11-29T00:18:02.929Z,34.85
2022-11-29T00:20:30.056Z,31.67
2022-11-29T00:22:56.682Z,38.88
2022-11-29T00:25:23.348Z,30.58
2022-11-29T00:27:51.517Z,31.95
2022-11-29T00:30:19.714Z,25.13
2022-11-29T00:32:46.410Z,26.38
2022-11-29T00:35:13.106Z,28.35
2022-11-29T00:37:39.984Z,33.92
2022-11-29T00:40:07.531Z,28.23
2022-11-29T00:42:34.220Z,24.33
2022-11-29T00:45:00.837Z,23.25
2022-11-29T00:47:27.511Z,26.50
2022-11-29T00:49:54.199Z,27.05
2022-11-29T00:52:20.836Z,25.60
2022-11-29T00:54:47.615Z,24.73
2022-11-29T00:57:14.280Z,25.58
2022-11-29T00:59:40.983Z,22.58
2022-11-29T01:02:07.672Z,26.23
2022-11-29T01:04:34.319Z,27.10
2022-11-29T01:07:00.982Z,30.27
2022-11-29T01:09:27.577Z,23.52
2022-11-29T01:11:54.198Z,32.28
2022-11-29T01:14:20.792Z,23.83
2022-11-29T01:16:47.571Z,26.33
2022-11-29T01:19:14.208Z,23.60
2022-11-29T01:21:41.417Z,22.38
2022-11-29T01:24:08.031Z,33.38
2022-11-29T01:26:34.726Z,23.67
2022-11-29T01:29:01.402Z,24.45
2022-11-29T01:31:35.826Z,22.90
2022-11-29T01:34:03.901Z,23.30
2022-11-29T01:36:30.606Z,25.45
2022-11-29T01:39:02.145Z,23.58
2022-11-29T01:41:31.323Z,24.17
2022-11-29T01:44:07.515Z,26.65
2022-11-29T01:46:39.748Z,21.88
2022-11-29T01:49:17.091Z,17.92
2022-11-29T01:51:47.646Z,21.45
2022-11-29T01:54:14.896Z,24.48
2022-11-29T01:56:42.099Z,18.58
2022-11-29T01:59:14.593Z,21.50
2022-11-29T02:01:41.513Z,21.55
2022-11-29T02:04:08.241Z,25.40
2022-11-29T02:06:35.653Z,25.15
2022-11-29T02:09:03.285Z,23.83
2022-11-29T02:11:48.891Z,25.30
2022-11-29T02:19:12.666Z,23.23
2022-11-29T02:21:39.422Z,25.75
2022-11-29T02:24:20.075Z,27.40
2022-11-29T02:27:24.271Z,28.90
2022-11-29T02:30:03.079Z,23.48
2022-11-29T02:32:38.533Z,27.27
2022-11-29T02:35:17.192Z,28.50
2022-11-29T02:37:58.378Z,25.92
2022-11-29T02:40:59.115Z,23.85
2022-11-29T02:43:47.444Z,25.48
2022-11-29T02:46:38.288Z,26.98
2022-11-29T02:49:12.680Z,24.70
2022-11-29T02:51:45.586Z,23.38
2022-11-29T02:54:23.995Z,25.58
2022-11-29T02:57:10.780Z,24.98
2022-11-29T02:59:48.622Z,26.70
2022-11-29T03:02:33.645Z,27.65
2022-11-29T03:05:03.259Z,32.15
2022-11-29T03:07:50.466Z,30.60
2022-11-29T03:10:39.225Z,35.40
2022-11-29T03:13:11.470Z,36.45
2022-11-29T03:15:51.745Z,40.05
2022-11-29T03:18:56.006Z,34.20
2022-11-29T03:21:22.659Z,33.65
2022-11-29T03:23:57.789Z,32.42
2022-11-29T03:26:36.196Z,41.72
2022-11-29T03:29:07.713Z,37.05
2022-11-29T03:31:46.975Z,48.47
2022-11-29T03:34:19.562Z,47.63
2022-11-29T03:37:12.351Z,46.17
2022-11-29T03:39:44.749Z,41.22
2022-11-29T03:42:16.471Z,52.42
2022-11-29T03:44:52.834Z,45.40
2022-11-29T03:47:26.804Z,39.78
2022-11-29T03:50:00.294Z,44.60
2022-11-29T03:52:34.193Z,47.70
2022-11-29T03:55:25.386Z,52.35
2022-11-29T03:57:54.837Z,42.03
2022-11-29T04:00:21.912Z,47.10
2022-11-29T04:03:06.096Z,49.47
2022-11-29T04:05:47.949Z,54.13
2022-11-29T04:08:14.505Z,46.35
2022-11-29T04:10:56.405Z,48.05
2022-11-29T04:13:50.706Z,45.30
2022-11-29T04:16:23.465Z,56.30
2022-11-29T04:19:15.119Z,62.35
2022-11-29T04:21:47.823Z,52.55
2022-11-29T04:24:26.588Z,47.97
2022-11-29T04:27:23.959Z,46.65
2022-11-29T04:29:50.518Z,48.63
2022-11-29T04:32:40.098Z,41.13
2022-11-29T04:35:34.441Z,54.67
2022-11-29T04:38:25.925Z,42.00
2022-11-29T04:41:10.646Z,44.33
2022-11-29T04:43:56.086Z,38.20
2022-11-29T04:46:25.604Z,44.15
2022-11-29T04:49:15.372Z,41.35
2022-11-29T04:51:48.089Z,42.00
2022-11-29T04:54:39.202Z,47.80
2022-11-29T04:57:23.174Z,40.90
2022-11-29T05:00:02.318Z,33.70
2022-11-29T05:02:56.249Z,33.65
2022-11-29T05:05:37.694Z,37.50
2022-11-29T05:08:41.643Z,40.42
2022-11-29T05:11:11.176Z,37.17
2022-11-29T05:13:49.899Z,34.85
2022-11-29T05:16:41.381Z,42.40
2022-11-29T05:19:35.928Z,35.58
2022-11-29T05:22:19.978Z,40.38
2022-11-29T05:25:03.182Z,40.33
2022-11-29T05:27:45.978Z,40.78
2022-11-29T05:30:21.479Z,40.58
2022-11-29T05:33:09.544Z,34.83
2022-11-29T05:35:36.162Z,42.33
2022-11-29T05:38:40.576Z,55.40
2022-11-29T05:41:25.825Z,38.55
2022-11-29T05:44:12.909Z,39.25
2022-11-29T05:46:57.255Z,34.22
2022-11-29T05:49:45.853Z,39.45
2022-11-29T05:52:16.117Z,35.85
2022-11-29T05:55:36.890Z,33.40
2022-11-29T05:58:30.070Z,34.38
2022-11-29T06:01:03.964Z,33.42
2022-11-29T06:03:38.474Z,43.80
2022-11-29T06:06:30.514Z,41.63
2022-11-29T06:09:05.809Z,38.40
2022-11-29T06:11:56.810Z,37.78
2022-11-29T06:14:35.289Z,40.15
2022-11-29T06:17:39.512Z,40.42
2022-11-29T06:20:19.190Z,36.95
2022-11-29T06:22:58.204Z,35.40
2022-11-29T06:25:27.676Z,36.42
2022-11-29T06:28:12.582Z,43.53
2022-11-29T06:31:01.190Z,41.15
2022-11-29T06:33:53.925Z,31.00
2022-11-29T06:36:28.018Z,45.05
2022-11-29T06:38:54.952Z,42.00
2022-11-29T06:41:23.702Z,39.47
2022-11-29T06:43:50.823Z,41.80
2022-11-29T06:46:23.586Z,36.55
2022-11-29T06:49:25.390Z,35.30
2022-11-29T06:52:02.393Z,40.30
2022-11-29T06:55:06.111Z,34.25
2022-11-29T06:57:55.812Z,38.80
2022-11-29T07:00:27.163Z,39.72
2022-11-29T07:03:19.037Z,37.85
2022-11-29T07:05:46.741Z,38.28
2022-11-29T07:08:19.545Z,49.50
2022-11-29T07:10:49.745Z,41.13
2022-11-29T07:13:17.964Z,39.83
2022-11-29T07:16:14.919Z,41.50
2022-11-29T07:19:01.714Z,42.15
2022-11-29T07:21:56.147Z,42.25
2022-11-29T07:25:04.802Z,33.22
2022-11-29T07:28:02.614Z,48.22
2022-11-29T07:30:54.023Z,40.80
2022-11-29T07:33:33.446Z,48.00
2022-11-29T07:36:14.690Z,48.75
2022-11-29T07:39:01.434Z,39.90
2022-11-29T07:41:37.053Z,43.33
2022-11-29T07:44:33.709Z,43.58
2022-11-29T07:47:00.491Z,41.80
2022-11-29T07:49:27.199Z,46.42
2022-11-29T07:51:54.833Z,41.70
2022-11-29T07:54:22.271Z,44.83
2022-11-29T07:56:49.138Z,46.70
2022-11-29T07:59:15.879Z,46.78
2022-11-29T08:01:43.587Z,41.47
2022-11-29T08:04:10.306Z,37.58
2022-11-29T08:06:37.319Z,46.20
2022-11-29T08:09:04.497Z,41.67
2022-11-29T08:11:31.300Z,42.03
2022-11-29T08:13:58.940Z,51.30
2022-11-29T08:16:26.193Z,49.10
2022-11-29T08:18:55.566Z,43.42
2022-11-29T08:21:23.952Z,42.55
2022-11-29T08:23:51.144Z,46.55
2022-11-29T08:26:18.966Z,43.65
2022-11-29T08:28:45.651Z,43.80
2022-11-29T08:31:13.964Z,46.22
2022-11-29T08:33:42.586Z,46.05
2022-11-29T08:36:14.254Z,45.70
2022-11-29T08:38:41.346Z,34.30
2022-11-29T08:41:10.133Z,39.22
2022-11-29T08:43:36.730Z,38.33
2022-11-29T08:46:03.567Z,43.10
2022-11-29T08:48:30.411Z,40.72
2022-11-29T08:50:57.380Z,39.13
2022-11-29T08:53:43.436Z,35.13
2022-11-29T08:59:05.520Z,41.15
2022-11-29T09:01:32.202Z,36.30
2022-11-29T09:04:10.506Z,45.00
2022-11-29T09:06:39.133Z,37.80
2022-11-29T09:09:06.219Z,35.47
2022-11-29T09:11:34.642Z,35.08
2022-11-29T09:14:04.216Z,31.38
2022-11-29T09:16:34.231Z,47.20
2022-11-29T09:19:01.120Z,36.28
2022-11-29T09:21:30.237Z,41.10
2022-11-29T09:24:00.291Z,29.13
2022-11-29T09:26:29.575Z,35.25
2022-11-29T09:28:58.058Z,36.13
2022-11-29T09:31:24.796Z,33.95
2022-11-29T09:33:51.821Z,37.22
2022-11-29T09:36:22.611Z,34.45
2022-11-29T09:38:53.411Z,30.65
2022-11-29T09:41:48.408Z,39.78
2022-11-29T09:44:34.922Z,40.20
2022-11-29T09:47:27.558Z,33.70
2022-11-29T09:50:09.316Z,32.35
2022-11-29T09:53:15.902Z,35.47
2022-11-29T09:56:20.219Z,25.00
2022-11-29T09:58:54.052Z,31.23
2022-11-29T10:01:24.513Z,41.40
2022-11-29T10:03:53.831Z,27.58
2022-11-29T10:06:30.872Z,40.78
2022-11-29T10:09:08.199Z,34.55
2022-11-29T10:11:50.347Z,32.17
2022-11-29T10:14:21.056Z,26.88
2022-11-29T10:17:46.165Z,32.95
2022-11-29T10:20:27.591Z,25.90
2022-11-29T10:23:02.208Z,32.60
2022-11-29T10:25:33.945Z,32.92
2022-11-29T10:28:00.578Z,29.67
2022-11-29T10:30:27.319Z,31.88
2022-11-29T10:32:58.426Z,34.85
2022-11-29T10:35:25.156Z,30.67
2022-11-29T10:38:22.642Z,35.28
2022-11-29T10:40:47.205Z,24.67
2022-11-29T10:43:14.035Z,38.95
2022-11-29T10:45:46.018Z,29.45
2022-11-29T10:48:15.636Z,33.85
2022-11-29T10:50:44.208Z,36.40
2022-11-29T10:53:13.493Z,32.45
2022-11-29T10:55:47.198Z,28.20
2022-11-29T10:58:28.483Z,28.00
2022-11-29T11:00:56.727Z,28.80
2022-11-29T11:03:43.503Z,28.00
2022-11-29T11:06:13.119Z,34.22
2022-11-29T11:08:43.943Z,36.20
2022-11-29T11:11:12.019Z,28.20
2022-11-29T11:13:40.875Z,34.85
2022-11-29T11:16:16.959Z,38.30
2022-11-29T11:18:44.714Z,33.35
2022-11-29T11:21:14.868Z,42.08
2022-11-29T11:23:59.770Z,37.55
2022-11-29T11:26:27.039Z,31.10
2022-11-29T11:29:01.877Z,36.97
2022-11-29T11:31:37.943Z,40.53
2022-11-29T11:34:28.698Z,44.75
2022-11-29T11:37:16.664Z,36.95
2022-11-29T11:39:45.199Z,39.75
2022-11-29T11:42:40.288Z,39.47
2022-11-29T11:45:13.220Z,47.88
2022-11-29T11:47:43.953Z,40.97
2022-11-29T11:50:17.166Z,42.97
2022-11-29T11:52:50.450Z,38.45
2022-11-29T11:55:29.701Z,41.80
2022-11-29T11:58:07.658Z,37.60
2022-11-29T12:03:45.062Z,38.90
2022-11-29T12:06:32.487Z,47.20
2022-11-29T12:09:08.419Z,39.95
2022-11-29T12:12:12.473Z,32.67
2022-11-29T12:14:44.994Z,35.47
2022-11-29T12:17:30.030Z,37.55
2022-11-29T12:20:21.564Z,38.92
2022-11-29T12:22:59.230Z,38.92
2022-11-29T12:25:30.789Z,42.83
2022-11-29T12:27:57.731Z,46.95
2022-11-29T12:30:25.985Z,45.70
2022-11-29T12:33:14.500Z,53.03
2022-11-29T12:35:59.973Z,47.63
2022-11-29T12:38:50.114Z,41.83
2022-11-29T12:41:35.112Z,42.88
2022-11-29T12:44:04.017Z,36.40
2022-11-29T12:46:31.273Z,32.97
2022-11-29T12:49:07.230Z,32.45
2022-11-29T12:51:46.715Z,33.08
2022-11-29T12:54:54.732Z,38.83
2022-11-29T12:57:56.465Z,49.17
2022-11-29T13:00:23.396Z,41.75
2022-11-29T13:03:17.212Z,48.58
2022-11-29T13:05:47.465Z,52.83
2022-11-29T13:08:35.891Z,45.22
2022-11-29T13:11:22.508Z,52.80
2022-11-29T13:14:03.771Z,47.67
2022-11-29T13:17:00.237Z,52.90
2022-11-29T13:19:38.315Z,44.40
2022-11-29T13:22:19.151Z,39.10
2022-11-29T13:24:54.989Z,36.50
2022-11-29T13:27:28.369Z,42.17
2022-11-29T13:29:56.190Z,52.75
2022-11-29T13:32:36.291Z,48.35
2022-11-29T13:35:19.887Z,46.67
2022-11-29T13:38:00.156Z,51.17
2022-11-29T13:40:38.630Z,46.03
2022-11-29T13:43:30.958Z,40.80
2022-11-29T13:46:09.589Z,48.97
2022-11-29T13:48:56.448Z,50.38
2022-11-29T13:51:33.851Z,47.30
2022-11-29T13:54:03.132Z,48.20
2022-11-29T13:56:36.932Z,45.17
2022-11-29T13:59:11.109Z,51.10
2022-11-29T14:01:46.453Z,56.25
2022-11-29T14:04:39.006Z,39.83
2022-11-29T14:07:11.213Z,56.15
2022-11-29T14:10:04.145Z,43.90
2022-11-29T14:12:40.760Z,42.22
2022-11-29T14:15:17.200Z,39.17
2022-11-29T14:18:02.863Z,48.47
2022-11-29T14:20:32.457Z,44.08
2022-11-29T14:23:06.707Z,43.72
2022-11-29T14:25:52.067Z,69.28
2022-11-29T14:28:22.145Z,49.72
2022-11-29T14:30:55.638Z,55.00
2022-11-29T14:33:26.747Z,49.05
2022-11-29T14:36:15.401Z,56.22
2022-11-29T14:39:02.736Z,53.75
2022-11-29T14:41:48.856Z,55.72
2022-11-29T14:44:22.287Z,40.40
2022-11-29T14:46:50.714Z,50.50
2022-11-29T14:49:23.916Z,51.35
2022-11-29T14:52:33.881Z,59.25
2022-11-29T14:55:00.577Z,48.85
2022-11-29T14:57:52.081Z,50.13
2022-11-29T15:00:39.489Z,42.85
2022-11-29T15:03:31.691Z,56.95
2022-11-29T15:06:04.548Z,49.25
2022-11-29T15:08:42.247Z,55.53
2022-11-29T15:11:26.467Z,70.55
2022-11-29T15:14:04.175Z,53.88
2022-11-29T15:16:50.492Z,52.40
2022-11-29T15:19:20.203Z,51.28
2022-11-29T15:22:07.515Z,65.97
2022-11-29T15:24:53.684Z,56.47
2022-11-29T15:27:21.391Z,57.08
2022-11-29T15:29:48.974Z,54.90
2022-11-29T15:32:38.826Z,53.53
2022-11-29T15:35:05.638Z,46.70
2022-11-29T15:37:37.291Z,59.05
2022-11-29T15:40:12.294Z,56.35
2022-11-29T15:42:41.787Z,55.45
2022-11-29T15:45:28.978Z,63.13
2022-11-29T15:48:10.397Z,59.70
2022-11-29T15:50:37.684Z,60.03
2022-11-29T15:53:06.696Z,71.45
2022-11-29T15:55:33.594Z,66.18
2022-11-29T15:58:06.979Z,67.25
2022-11-29T16:00:35.970Z,58.42
2022-11-29T16:03:04.889Z,58.88
2022-11-29T16:05:47.076Z,47.97
2022-11-29T16:08:17.803Z,57.83
2022-11-29T16:10:47.488Z,60.50
2022-11-29T16:13:23.109Z,52.47
2022-11-29T16:15:49.829Z,50.63
2022-11-29T16:18:21.014Z,58.97
2022-11-29T16:21:02.018Z,76.45
2022-11-29T16:23:43.655Z,81.18
2022-11-29T16:26:19.405Z,65.78
2022-11-29T16:28:49.274Z,53.53
2022-11-29T16:31:28.552Z,58.95
2022-11-29T16:37:07.590Z,64.53
2022-11-29T16:39:35.491Z,63.70
2022-11-29T16:42:29.452Z,54.92
2022-11-29T16:45:04.828Z,61.50
2022-11-29T16:47:58.404Z,56.42
2022-11-29T16:50:27.306Z,52.85
2022-11-29T16:52:56.837Z,70.25
2022-11-29T16:55:25.483Z,54.40
2022-11-29T16:57:52.781Z,58.70
2022-11-29T17:00:33.912Z,70.13
2022-11-29T17:03:18.778Z,73.72
2022-11-29T17:05:45.450Z,65.30
2022-11-29T17:08:12.604Z,59.92
2022-11-29T17:10:39.295Z,63.83
2022-11-29T17:13:09.782Z,64.88
2022-11-29T17:15:36.468Z,72.45
2022-11-29T17:18:03.185Z,47.47
2022-11-29T17:20:29.830Z,60.13
2022-11-29T17:22:58.221Z,50.42
2022-11-29T17:25:24.823Z,49.53
2022-11-29T17:27:57.955Z,56.33
2022-11-29T17:30:24.722Z,51.75
2022-11-29T17:32:51.338Z,56.70
2022-11-29T17:35:18.096Z,54.25
2022-11-29T17:37:44.796Z,52.55
2022-11-29T17:40:13.560Z,58.25
2022-11-29T17:42:40.203Z,70.95
2022-11-29T17:45:07.496Z,53.63
2022-11-29T17:47:34.097Z,57.80
2022-11-29T17:50:00.749Z,55.72
2022-11-29T17:52:27.552Z,54.25
2022-11-29T17:54:56.741Z,54.38
2022-11-29T17:57:23.620Z,56.75
2022-11-29T17:59:51.357Z,69.38
2022-11-29T18:02:18.049Z,58.85
2022-11-29T18:04:44.902Z,58.47
2022-11-29T18:07:13.523Z,52.50
2022-11-29T18:09:40.234Z,57.03
2022-11-29T18:12:06.973Z,66.25
2022-11-29T18:14:36.254Z,41.13
2022-11-29T18:17:03.046Z,50.88
2022-11-29T18:19:31.380Z,51.35
2022-11-29T18:21:58.091Z,43.80
2022-11-29T18:24:24.697Z,49.83
2022-11-29T18:26:51.379Z,39.70
2022-11-29T18:29:23.159Z,48.38
2022-11-29T18:31:50.191Z,42.03
2022-11-29T18:34:17.526Z,42.47
2022-11-29T18:36:47.349Z,51.88
2022-11-29T18:42:06.378Z,48.13
2022-11-29T18:44:33.135Z,48.47
2022-11-29T18:46:59.836Z,53.85
2022-11-29T18:49:26.485Z,61.05
2022-11-29T18:51:54.277Z,52.45
2022-11-29T18:54:20.944Z,49.08
2022-11-29T18:56:50.735Z,52.13
2022-11-29T18:59:17.963Z,48.10
2022-11-29T19:01:46.369Z,52.03
2022-11-29T19:04:15.031Z,43.88
2022-11-29T19:06:46.560Z,45.25
2022-11-29T19:09:15.898Z,54.10
2022-11-29T19:11:42.895Z,57.17
2022-11-29T19:14:12.079Z,52.97
2022-11-29T19:16:42.333Z,57.47
2022-11-29T19:19:09.257Z,49.63
2022-11-29T19:21:36.038Z,67.35
2022-11-29T19:24:05.133Z,72.43
2022-11-29T19:26:33.560Z,61.78
2022-11-29T19:29:01.253Z,53.08
2022-11-29T19:31:28.201Z,49.50
2022-11-29T19:33:56.162Z,60.35
2022-11-29T19:36:30.782Z,64.22
2022-11-29T19:39:00.290Z,56.83
2022-11-29T19:41:31.596Z,48.65
2022-11-29T19:44:00.479Z,52.70
2022-11-29T19:46:34.613Z,59.85
2022-11-29T19:49:02.374Z,52.95
2022-11-29T19:51:30.691Z,54.63
2022-11-29T19:54:00.472Z,52.97
2022-11-29T19:56:30.489Z,61.72
2022-11-29T19:59:05.842Z,55.13
2022-11-29T20:01:40.870Z,66.90
2022-11-29T20:04:10.032Z,56.55
2022-11-29T20:06:38.005Z,56.42
2022-11-29T20:09:08.523Z,60.13
2022-11-29T20:11:37.720Z,68.13
2022-11-29T20:14:15.581Z,64.57
2022-11-29T20:16:48.014Z,69.95
2022-11-29T20:19:16.559Z,61.58
2022-11-29T20:21:48.279Z,67.25
2022-11-29T20:24:16.882Z,65.95
2022-11-29T20:26:47.117Z,59.97
2022-11-29T20:29:14.495Z,63.17
2022-11-29T20:31:49.621Z,60.58
2022-11-29T20:34:17.396Z,53.50
2022-11-29T20:37:15.557Z,65.15
2022-11-29T20:39:47.030Z,66.47
2022-11-29T20:42:29.384Z,61.45
2022-11-29T20:44:57.564Z,63.97
2022-11-29T20:47:33.216Z,72.30
2022-11-29T20:49:59.967Z,65.10
2022-11-29T20:52:29.468Z,66.70
2022-11-29T20:54:56.140Z,61.50
2022-11-29T20:57:23.108Z,60.08
2022-11-29T20:59:49.752Z,64.43
2022-11-29T21:02:18.991Z,62.35
2022-11-29T21:04:46.019Z,74.63
2022-11-29T21:07:12.911Z,52.78
2022-11-29T21:09:39.571Z,65.35
2022-11-29T21:12:06.744Z,67.40
2022-11-29T21:14:33.925Z,71.18
2022-11-29T21:17:00.899Z,63.42
2022-11-29T21:19:28.654Z,62.83
2022-11-29T21:22:02.193Z,51.95
2022-11-29T21:24:38.236Z,69.88
2022-11-29T21:27:09.465Z,63.15
2022-11-29T21:29:36.347Z,64.65
2022-11-29T21:32:03.232Z,66.82
2022-11-29T21:34:29.948Z,65.70
2022-11-29T21:36:58.374Z,64.78
2022-11-29T21:39:33.401Z,59.92
2022-11-29T21:42:00.203Z,55.50
2022-11-29T21:44:26.825Z,67.93
2022-11-29T21:46:53.647Z,70.72
2022-11-29T21:49:20.672Z,58.90
2022-11-29T21:51:47.329Z,65.65
2022-11-29T21:54:14.954Z,65.63
2022-11-29T21:56:41.851Z,61.38
2022-11-29T21:59:08.659Z,72.30
2022-11-29T22:01:35.375Z,64.97
2022-11-29T22:04:02.354Z,69.05
2022-11-29T22:06:29.570Z,69.25
2022-11-29T22:08:56.404Z,75.80
2022-11-29T22:11:30.980Z,67.63
2022-11-29T22:14:14.483Z,74.05
2022-11-29T22:16:52.465Z,69.10
2022-11-29T22:19:20.668Z,68.65
2022-11-29T22:21:49.542Z,66.30
2022-11-29T22:24:18.784Z,78.75
2022-11-29T22:26:46.300Z,66.63
2022-11-29T22:29:14.220Z,73.38
2022-11-29T22:31:42.255Z,66.35
2022-11-29T22:34:09.236Z,71.05
2022-11-29T22:36:36.816Z,82.30
2022-11-29T22:39:04.549Z,77.55
2022-11-29T22:41:32.143Z,70.90
2022-11-29T22:43:58.764Z,66.13
2022-11-29T22:46:27.177Z,67.18
2022-11-29T22:48:55.716Z,73.68
2022-11-29T22:51:30.631Z,65.38
2022-11-29T22:53:59.057Z,69.57
2022-11-29T22:56:31.110Z,79.13
2022-11-29T22:58:58.060Z,66.90
2022-11-29T23:01:27.118Z,74.93
2022-11-29T23:03:55.951Z,70.35
2022-11-29T23:06:25.158Z,73.88
2022-11-29T23:08:53.541Z,74.95
2022-11-29T23:11:22.358Z,71.57
2022-11-29T23:13:48.972Z,77.38
2022-11-29T23:16:18.599Z,71.60
2022-11-29T23:18:47.674Z,74.07
2022-11-29T23:21:23.333Z,60.13
2022-11-29T23:23:56.069Z,73.22
2022-11-29T23:26:29.479Z,65.43
2022-11-29T23:28:56.645Z,78.20
2022-11-29T23:31:23.715Z,83.65
2022-11-29T23:33:50.666Z,73.15
2022-11-29T23:36:17.661Z,73.78
2022-11-29T23:38:44.763Z,75.82
2022-11-29T23:41:11.945Z,76.18
2022-11-29T23:43:40.479Z,81.32
2022-11-29T23:46:09.389Z,74.57
2022-11-29T23:48:36.244Z,72.28
2022-11-29T23:51:03.025Z,81.43
2022-11-29T23:53:29.896Z,66.07
2022-11-29T23:56:07.829Z,73.03
2022-11-29T23:58:34.817Z,76.15
